1873 Tropical Storm NOT_NAMED (1873231N35306)


IBTrACS version v04r00. Visit IBTrACS website for data access.
Please direct all questions to the IBTrACS Q and A forum

Storm track - Intensity - Wind Radii - Intensity Data - Source Data - All data

Summary Information

Storm ID 1873231N35306
Start Aug 18 12Z
Max Intensity 55 kt (Aug 24 12Z)
End Aug 25 12Z
ATCF IDs
Track status Best track data.

Storm track plot

Map of storm track

Intensity plots

Map of storm track

Radial wind information

No radial wind information for this storm


Position and Intensity Table

BASIN ISO_TIME_________ NATURE LAT LON MLC WIND
degrees north degrees east kts
NA 1873-08-18 12:00:00 TS 35.00 -54.00 25
NA 15:00:00 TS 35.10 -54.00 25
NA 18:00:00 TS 35.20 -54.00 25
NA 21:00:00 TS 35.30 -54.00 25
NA 1873-08-19 00:00:00 TS 35.40 -54.00 25
NA 03:00:00 TS 35.50 -54.00 27
NA 06:00:00 TS 35.60 -54.00 30
NA 09:00:00 TS 35.68 -54.02 30
NA 12:00:00 TS 35.80 -54.00 30
NA 15:00:00 TS 35.99 -53.87 30
NA 18:00:00 TS 36.20 -53.70 30
NA 21:00:00 TS 36.39 -53.60 32
NA 1873-08-20 00:00:00 TS 36.60 -53.50 35
NA 03:00:00 TS 36.85 -53.35 35
NA 06:00:00 TS 37.10 -53.20 35
NA 09:00:00 TS 37.28 -53.12 37
NA 12:00:00 TS 37.50 -53.00 40
NA 15:00:00 TS 37.88 -52.74 40
NA 18:00:00 TS 38.30 -52.40 40
NA 21:00:00 TS 38.65 -52.05 42
NA 1873-08-21 00:00:00 TS 39.00 -51.70 45
NA 03:00:00 TS 39.40 -51.39 45
NA 06:00:00 TS 39.80 -51.10 45
NA 09:00:00 TS 40.17 -50.84 45
NA 12:00:00 TS 40.50 -50.50 45
NA 15:00:00 TS 40.77 -49.99 45
NA 18:00:00 TS 41.00 -49.40 45
NA 21:00:00 TS 41.25 -48.85 45
NA 1873-08-22 00:00:00 TS 41.50 -48.30 45
NA 03:00:00 TS 41.75 -47.76 45
NA 06:00:00 TS 42.00 -47.20 45
NA 09:00:00 TS 42.24 -46.56 45
NA 12:00:00 TS 42.50 -46.00 45
NA 15:00:00 TS 42.84 -45.70 45
NA 18:00:00 TS 43.20 -45.50 45
NA 21:00:00 TS 43.51 -45.25 45
NA 1873-08-23 00:00:00 TS 43.80 -45.00 45
NA 03:00:00 TS 44.10 -44.75 45
NA 06:00:00 TS 44.40 -44.50 45
NA 09:00:00 TS 44.65 -44.19 45
NA 12:00:00 TS 45.00 -44.00 45
NA 15:00:00 TS 45.61 -44.10 45
NA 18:00:00 TS 46.30 -44.30 45
NA 21:00:00 TS 46.91 -44.41 45
NA 1873-08-24 00:00:00 ET 47.50 -44.50 45
NA 03:00:00 ET 48.09 -44.67 45
NA 06:00:00 ET 48.70 -44.70 45
NA 09:00:00 ET 49.42 -44.47 50
NA 12:00:00 ET 50.00 -44.00 55
NA 15:00:00 ET 50.23 -43.34 55
NA 18:00:00 ET 50.30 -42.60 55
NA 21:00:00 ET 50.40 -41.95 55
NA 1873-08-25 00:00:00 ET 50.50 -41.30 55
NA 03:00:00 ET 50.65 -40.61 50
NA 06:00:00 ET 50.80 -39.90 45
NA 09:00:00 ET 50.91 -39.20 40
NA 12:00:00 ET 51.00 -38.50 35

Source Information

Agency Information
USA
TOKYO
CMA
HKO
NEWDELHI
REUNION
BOM
NADI
WELLINGTON
DS824
TD9636
TD9635
NEUMANN
MLC

All available IBTrACS Data

SEASON BASIN SUBBASIN ISO_TIME_________ NATURE LAT LON DIST2LAND LANDFALL IFLAG USA SSHS MLC LAT MLC LON MLC CLASS MLC WIND STORM SPEED STORM DIR
Year degrees north degrees east km km 1 degrees north degrees east kts kts degrees
1873 NA NA 1873-08-18 12:00:00 TS 35.00 -54.00 1283 1273 _____________O -1 35.00 -54.00 TD 25 2 0
1873 NA NA 15:00:00 TS 35.10 -54.00 1273 1263 _____________P -1 35.10 -54.00 TD 25 2 8
1873 NA NA 18:00:00 TS 35.20 -54.00 1263 1253 _____________O -1 35.20 -54.00 TD 25 2 8
1873 NA NA 21:00:00 TS 35.30 -54.00 1253 1243 _____________P -1 35.30 -54.00 TD 25 2 8
1873 NA NA 1873-08-19 00:00:00 TS 35.40 -54.00 1243 1233 _____________O -1 35.40 -54.00 TD 25 2 352
1873 NA NA 03:00:00 TS 35.50 -54.00 1233 1223 _____________P -1 35.50 -54.00 TD 27 2 8
1873 NA NA 06:00:00 TS 35.60 -54.00 1223 1213 _____________O -1 35.60 -54.00 TD 30 2 355
1873 NA NA 09:00:00 TS 35.68 -54.02 1213 1201 _____________P -1 35.68 -54.02 TD 30 2 8
1873 NA NA 12:00:00 TS 35.80 -54.00 1201 1179 _____________O -1 35.80 -54.00 TD 30 3 23
1873 NA NA 15:00:00 TS 35.99 -53.87 1179 1156 _____________P -1 35.99 -53.87 TD 30 5 31
1873 NA NA 18:00:00 TS 36.20 -53.70 1156 1134 _____________O -1 36.20 -53.70 TD 30 5 28
1873 NA NA 21:00:00 TS 36.39 -53.60 1134 1112 _____________P -1 36.39 -53.60 TD 32 4 22
1873 NA NA 1873-08-20 00:00:00 TS 36.60 -53.50 1112 1090 _____________O -1 36.60 -53.50 TS 35 5 24
1873 NA NA 03:00:00 TS 36.85 -53.35 1079 1056 _____________P -1 36.85 -53.35 TS 35 6 26
1873 NA NA 06:00:00 TS 37.10 -53.20 1056 1034 _____________O -1 37.10 -53.20 TS 35 5 23
1873 NA NA 09:00:00 TS 37.28 -53.12 1034 1012 _____________P -1 37.28 -53.12 TS 37 4 21
1873 NA NA 12:00:00 TS 37.50 -53.00 1012 968 _____________O -1 37.50 -53.00 TS 40 7 27
1873 NA NA 15:00:00 TS 37.88 -52.74 968 925 _____________P -1 37.88 -52.74 TS 40 9 31
1873 NA NA 18:00:00 TS 38.30 -52.40 925 894 _____________O -1 38.30 -52.40 TS 40 9 35
1873 NA NA 21:00:00 TS 38.65 -52.05 883 853 _____________P -1 38.65 -52.05 TS 42 9 38
1873 NA NA 1873-08-21 00:00:00 TS 39.00 -51.70 853 813 _____________O -1 39.00 -51.70 TS 45 9 34
1873 NA NA 03:00:00 TS 39.40 -51.39 813 774 _____________P -1 39.40 -51.39 TS 45 9 30
1873 NA NA 06:00:00 TS 39.80 -51.10 774 735 _____________O -1 39.80 -51.10 TS 45 9 29
1873 NA NA 09:00:00 TS 40.17 -50.84 737 709 _____________P -1 40.17 -50.84 TS 45 8 33
1873 NA NA 12:00:00 TS 40.50 -50.50 711 693 _____________O -1 40.50 -50.50 TS 45 9 47
1873 NA NA 15:00:00 TS 40.77 -49.99 693 689 _____________P -1 40.77 -49.99 TS 45 10 59
1873 NA NA 18:00:00 TS 41.00 -49.40 692 683 _____________O -1 41.00 -49.40 TS 45 10 61
1873 NA NA 21:00:00 TS 41.25 -48.85 695 683 _____________P -1 41.25 -48.85 TS 45 10 59
1873 NA NA 1873-08-22 00:00:00 TS 41.50 -48.30 687 683 _____________O -1 41.50 -48.30 TS 45 10 59
1873 NA NA 03:00:00 TS 41.75 -47.76 693 689 _____________P -1 41.75 -47.76 TS 45 10 59
1873 NA NA 06:00:00 TS 42.00 -47.20 697 695 _____________O -1 42.00 -47.20 TS 45 10 61
1873 NA NA 09:00:00 TS 42.24 -46.56 715 713 _____________P -1 42.24 -46.56 TS 45 10 61
1873 NA NA 12:00:00 TS 42.50 -46.00 727 725 _____________O -1 42.50 -46.00 TS 45 9 46
1873 NA NA 15:00:00 TS 42.84 -45.70 725 710 _____________P -1 42.84 -45.70 TS 45 8 28
1873 NA NA 18:00:00 TS 43.20 -45.50 710 703 _____________O -1 43.20 -45.50 TS 45 7 26
1873 NA NA 21:00:00 TS 43.51 -45.25 710 704 _____________P -1 43.51 -45.25 TS 45 7 31
1873 NA NA 1873-08-23 00:00:00 TS 43.80 -45.00 706 702 _____________O -1 43.80 -45.00 TS 45 7 31
1873 NA NA 03:00:00 TS 44.10 -44.75 710 705 _____________P -1 44.10 -44.75 TS 45 7 31
1873 NA NA 06:00:00 TS 44.40 -44.50 710 710 _____________O -1 44.40 -44.50 TS 45 7 36
1873 NA NA 09:00:00 TS 44.65 -44.19 720 714 _____________P -1 44.65 -44.19 TS 45 7 31
1873 NA NA 12:00:00 TS 45.00 -44.00 714 680 _____________O -1 45.00 -44.00 TS 45 10 4
1873 NA NA 15:00:00 TS 45.61 -44.10 680 641 _____________P -1 45.61 -44.10 TS 45 13 351
1873 NA NA 18:00:00 TS 46.30 -44.30 641 620 _____________O -1 46.30 -44.30 TS 45 13 350
1873 NA NA 21:00:00 TS 46.91 -44.41 620 605 _____________P -1 46.91 -44.41 TS 45 12 353
1873 NA NA 1873-08-24 00:00:00 ET 47.50 -44.50 605 590 _____________O -1 47.50 -44.50 EX 45 12 352
1873 NA NA 03:00:00 ET 48.09 -44.67 590 590 _____________P -1 48.09 -44.67 EX 45 12 354
1873 NA NA 06:00:00 ET 48.70 -44.70 598 598 _____________O -1 48.70 -44.70 EX 45 13 5
1873 NA NA 09:00:00 ET 49.42 -44.47 622 622 _____________P -1 49.42 -44.47 EX 50 14 19
1873 NA NA 12:00:00 ET 50.00 -44.00 670 670 _____________O -1 50.00 -44.00 EX 55 11 42
1873 NA NA 15:00:00 ET 50.23 -43.34 723 723 _____________P -1 50.23 -43.34 EX 55 9 71
1873 NA NA 18:00:00 ET 50.30 -42.60 774 774 _____________O -1 50.30 -42.60 EX 55 9 79
1873 NA NA 21:00:00 ET 50.40 -41.95 825 825 _____________P -1 50.40 -41.95 EX 55 8 76
1873 NA NA 1873-08-25 00:00:00 ET 50.50 -41.30 868 868 _____________O -1 50.50 -41.30 EX 55 9 74
1873 NA NA 03:00:00 ET 50.65 -40.61 919 919 _____________P -1 50.65 -40.61 EX 50 9 71
1873 NA NA 06:00:00 ET 50.80 -39.90 971 971 _____________O -1 50.80 -39.90 EX 45 9 74
1873 NA NA 09:00:00 ET 50.91 -39.20 1021 1021 _____________P -1 50.91 -39.20 EX 40 9 77
1873 NA NA 12:00:00 ET 51.00 -38.50 1047 _____________O -1 51.00 -38.50 EX 35 9 79